createdAt,value
2017-03-13T00:07:26.226Z,0
2017-03-13T00:17:26.210Z,0
2017-03-13T00:27:26.579Z,0
2017-03-13T00:37:26.717Z,0
2017-03-13T00:47:26.998Z,0
2017-03-13T00:57:26.248Z,0
2017-03-13T01:07:26.416Z,0
2017-03-13T01:17:26.217Z,0
2017-03-13T01:27:26.288Z,0
2017-03-13T01:37:26.239Z,0
2017-03-13T01:47:26.237Z,0
2017-03-13T01:57:26.227Z,0
2017-03-13T02:07:26.266Z,0
2017-03-13T02:17:26.358Z,0
2017-03-13T02:27:26.344Z,0
2017-03-13T02:37:26.375Z,0
2017-03-13T02:47:26.385Z,0
2017-03-13T02:57:26.578Z,0
2017-03-13T03:07:26.446Z,0
2017-03-13T03:17:26.384Z,0
2017-03-13T03:27:26.287Z,0
2017-03-13T03:37:26.579Z,0
2017-03-13T03:47:26.352Z,0
2017-03-13T03:57:26.369Z,0
2017-03-13T04:07:26.413Z,0
2017-03-13T04:17:26.424Z,0
2017-03-13T04:27:26.432Z,0
2017-03-13T04:37:26.342Z,0
2017-03-13T04:47:26.474Z,0
2017-03-13T04:57:26.428Z,0
2017-03-13T05:07:26.511Z,0
2017-03-13T05:17:26.809Z,4
2017-03-13T05:27:26.441Z,16
2017-03-13T05:37:26.452Z,72
2017-03-13T05:47:26.758Z,220
2017-03-13T05:57:26.500Z,516
2017-03-13T06:07:26.430Z,1108
2017-03-13T06:17:26.437Z,1836
2017-03-13T06:27:26.473Z,2568
2017-03-13T06:37:26.524Z,3292
2017-03-13T06:47:26.440Z,4092
2017-03-13T06:57:26.481Z,4764
2017-03-13T07:07:26.481Z,5188
2017-03-13T07:17:26.541Z,5620
2017-03-13T07:27:26.552Z,6528
2017-03-13T07:37:26.502Z,8372
2017-03-13T07:47:26.592Z,9048
2017-03-13T07:57:36.279Z,8244
2017-03-13T08:07:26.530Z,7816
2017-03-13T08:17:26.490Z,8764
2017-03-13T08:27:26.644Z,6476
2017-03-13T08:37:26.588Z,3984
2017-03-13T08:47:26.700Z,3504
2017-03-13T08:57:26.601Z,3800
2017-03-13T09:07:26.499Z,3888
2017-03-13T09:17:26.521Z,4012
2017-03-13T09:27:26.627Z,4488
2017-03-13T09:37:26.561Z,6056
2017-03-13T09:47:26.735Z,6852
2017-03-13T09:57:26.572Z,6456
2017-03-13T10:07:26.671Z,6356
2017-03-13T10:17:26.557Z,10204
2017-03-13T10:27:26.619Z,9640
2017-03-13T10:37:26.632Z,4336
2017-03-13T10:47:26.670Z,3960
2017-03-13T10:57:26.779Z,3872
2017-03-13T11:07:26.615Z,3832
2017-03-13T11:17:26.645Z,3804
2017-03-13T11:27:26.664Z,3808
2017-03-13T11:37:26.660Z,3800
2017-03-13T11:47:26.739Z,3740
2017-03-13T11:57:26.737Z,3736
2017-03-13T12:07:26.684Z,3724
2017-03-13T12:17:26.726Z,3696
2017-03-13T12:27:26.687Z,3668
2017-03-13T12:37:26.708Z,3652
2017-03-13T12:47:26.721Z,3640
2017-03-13T12:57:27.087Z,3648
2017-03-13T13:07:26.899Z,3716
2017-03-13T13:17:26.705Z,3728
2017-03-13T13:27:26.740Z,3784
2017-03-13T13:37:26.800Z,3888
2017-03-13T13:47:26.824Z,4732
2017-03-13T13:57:26.801Z,6680
2017-03-13T14:07:26.802Z,7780
2017-03-13T14:17:26.908Z,9752
2017-03-13T14:27:27.041Z,8588
2017-03-13T14:37:26.818Z,9320
2017-03-13T14:47:26.809Z,9248
2017-03-13T14:57:26.807Z,8204
2017-03-13T15:07:26.865Z,7084
2017-03-13T15:17:26.817Z,6428
2017-03-13T15:27:26.860Z,6168
2017-03-13T15:37:26.900Z,4488
2017-03-13T15:47:26.964Z,3588
2017-03-13T15:57:26.974Z,3908
2017-03-13T16:07:27.273Z,3288
2017-03-13T16:17:27.276Z,2924
2017-03-13T16:27:26.957Z,2692
2017-03-13T16:37:26.920Z,3084
2017-03-13T16:47:27.010Z,2392
2017-03-13T16:57:26.938Z,1416
2017-03-13T17:07:27.024Z,924
2017-03-13T17:17:27.008Z,596
2017-03-13T17:27:27.024Z,288
2017-03-13T17:37:27.051Z,88
2017-03-13T17:47:27.139Z,20
2017-03-13T17:57:27.004Z,4
2017-03-13T18:07:27.063Z,0
2017-03-13T18:17:27.016Z,0
2017-03-13T18:27:27.113Z,0
2017-03-13T18:37:27.078Z,0
2017-03-13T18:47:27.152Z,0
2017-03-13T18:57:27.082Z,0
2017-03-13T19:07:27.047Z,0
2017-03-13T19:17:27.103Z,0
2017-03-13T19:27:27.181Z,0
2017-03-13T19:37:27.176Z,0
2017-03-13T19:47:27.107Z,0
2017-03-13T19:57:27.163Z,0
2017-03-13T20:07:27.109Z,0
2017-03-13T20:17:27.218Z,0
2017-03-13T20:27:27.188Z,0
2017-03-13T20:37:27.238Z,0
2017-03-13T20:47:27.200Z,0
2017-03-13T20:57:27.265Z,0
2017-03-13T21:07:27.142Z,0
2017-03-13T21:17:27.992Z,0
2017-03-13T21:27:29.544Z,0
2017-03-13T21:37:27.209Z,0
2017-03-13T21:47:27.260Z,0
2017-03-13T21:57:27.265Z,0
2017-03-13T22:07:27.353Z,0
2017-03-13T22:17:27.232Z,0
2017-03-13T22:27:27.263Z,0
2017-03-13T22:37:27.516Z,0
2017-03-13T22:47:27.342Z,0
2017-03-13T22:57:27.233Z,0
2017-03-13T23:07:27.338Z,0
2017-03-13T23:17:27.272Z,0
2017-03-13T23:27:27.355Z,0
2017-03-13T23:37:27.286Z,0
2017-03-13T23:47:27.467Z,0
2017-03-13T23:57:27.287Z,0
